sensor_id;sensor_type;location;lat;lon;timestamp;pressure;altitude;pressure_sealevel;temperature;humidity
26531;BME280;14201;43.188;24.160;2023-03-04T00:00:56;99779.91;;;7.15;100.00
26531;BME280;14201;43.188;24.160;2023-03-04T00:03:22;99788.31;;;7.10;100.00
26531;BME280;14201;43.188;24.160;2023-03-04T00:05:47;99783.56;;;7.03;100.00
26531;BME280;14201;43.188;24.160;2023-03-04T00:08:13;99787.50;;;7.26;100.00
26531;BME280;14201;43.188;24.160;2023-03-04T00:10:38;99793.75;;;7.00;100.00
26531;BME280;14201;43.188;24.160;2023-03-04T00:13:03;99782.50;;;7.00;100.00
26531;BME280;14201;43.188;24.160;2023-03-04T00:15:29;99780.97;;;7.03;100.00
26531;BME280;14201;43.188;24.160;2023-03-04T00:17:54;99786.44;;;6.93;100.00
26531;BME280;14201;43.188;24.160;2023-03-04T00:20:20;99791.16;;;7.00;100.00
26531;BME280;14201;43.188;24.160;2023-03-04T00:22:45;99780.00;;;7.01;100.00
26531;BME280;14201;43.188;24.160;2023-03-04T00:25:11;99776.97;;;7.08;100.00
26531;BME280;14201;43.188;24.160;2023-03-04T00:27:36;99773.66;;;7.11;100.00
26531;BME280;14201;43.188;24.160;2023-03-04T00:30:02;99775.28;;;7.24;100.00
26531;BME280;14201;43.188;24.160;2023-03-04T00:32:27;99774.28;;;7.22;100.00
26531;BME280;14201;43.188;24.160;2023-03-04T00:34:53;99777.56;;;7.34;100.00
26531;BME280;14201;43.188;24.160;2023-03-04T00:37:18;99775.53;;;7.28;100.00
26531;BME280;14201;43.188;24.160;2023-03-04T00:39:44;99774.63;;;7.28;100.00
26531;BME280;14201;43.188;24.160;2023-03-04T00:42:09;99780.25;;;7.21;100.00
26531;BME280;14201;43.188;24.160;2023-03-04T00:44:34;99782.69;;;7.18;100.00
26531;BME280;14201;43.188;24.160;2023-03-04T00:47:00;99778.31;;;7.17;100.00
26531;BME280;14201;43.188;24.160;2023-03-04T00:49:25;99781.78;;;7.17;100.00
26531;BME280;14201;43.188;24.160;2023-03-04T00:51:51;99781.88;;;7.19;100.00
26531;BME280;14201;43.188;24.160;2023-03-04T00:54:16;99776.34;;;7.27;100.00
26531;BME280;14201;43.188;24.160;2023-03-04T00:56:42;99776.06;;;7.38;100.00
26531;BME280;14201;43.188;24.160;2023-03-04T00:59:07;99773.72;;;7.42;100.00
26531;BME280;14201;43.188;24.160;2023-03-04T01:01:32;99770.88;;;7.38;100.00
26531;BME280;14201;43.188;24.160;2023-03-04T01:03:58;99767.75;;;7.43;100.00
26531;BME280;14201;43.188;24.160;2023-03-04T01:06:23;99766.31;;;7.34;100.00
26531;BME280;14201;43.188;24.160;2023-03-04T01:08:48;99768.13;;;7.20;100.00
26531;BME280;14201;43.188;24.160;2023-03-04T01:11:14;99764.47;;;7.16;100.00
26531;BME280;14201;43.188;24.160;2023-03-04T01:13:39;99761.00;;;7.16;100.00
26531;BME280;14201;43.188;24.160;2023-03-04T01:16:05;99764.75;;;7.06;100.00
26531;BME280;14201;43.188;24.160;2023-03-04T01:18:31;99758.31;;;6.99;100.00
26531;BME280;14201;43.188;24.160;2023-03-04T01:20:57;99763.22;;;7.09;100.00
26531;BME280;14201;43.188;24.160;2023-03-04T01:23:24;99760.53;;;7.08;100.00
26531;BME280;14201;43.188;24.160;2023-03-04T01:25:49;99734.31;;;7.02;100.00
26531;BME280;14201;43.188;24.160;2023-03-04T01:28:15;99756.44;;;7.12;100.00
26531;BME280;14201;43.188;24.160;2023-03-04T01:30:40;99749.22;;;7.06;100.00
26531;BME280;14201;43.188;24.160;2023-03-04T01:33:06;99751.25;;;6.97;100.00
26531;BME280;14201;43.188;24.160;2023-03-04T01:35:32;99746.34;;;7.01;100.00
26531;BME280;14201;43.188;24.160;2023-03-04T01:37:57;99746.22;;;7.00;100.00
26531;BME280;14201;43.188;24.160;2023-03-04T01:40:23;99739.94;;;7.09;100.00
26531;BME280;14201;43.188;24.160;2023-03-04T01:42:48;99746.06;;;6.97;100.00
26531;BME280;14201;43.188;24.160;2023-03-04T01:45:16;99741.97;;;7.00;100.00
26531;BME280;14201;43.188;24.160;2023-03-04T01:47:44;99747.31;;;7.18;100.00
26531;BME280;14201;43.188;24.160;2023-03-04T01:52:53;99746.34;;;7.16;100.00
26531;BME280;14201;43.188;24.160;2023-03-04T01:55:20;99740.53;;;7.05;100.00
26531;BME280;14201;43.188;24.160;2023-03-04T01:57:48;99735.97;;;7.01;100.00
26531;BME280;14201;43.188;24.160;2023-03-04T02:02:43;99740.19;;;6.99;100.00
26531;BME280;14201;43.188;24.160;2023-03-04T02:05:09;99732.50;;;7.01;100.00
26531;BME280;14201;43.188;24.160;2023-03-04T02:07:35;99729.56;;;6.95;100.00
26531;BME280;14201;43.188;24.160;2023-03-04T02:10:03;99728.03;;;6.98;100.00
26531;BME280;14201;43.188;24.160;2023-03-04T02:12:28;99732.59;;;7.02;100.00
26531;BME280;14201;43.188;24.160;2023-03-04T02:14:54;99740.38;;;7.02;100.00
26531;BME280;14201;43.188;24.160;2023-03-04T02:17:26;99731.13;;;7.07;100.00
26531;BME280;14201;43.188;24.160;2023-03-04T02:22:17;99731.69;;;7.17;100.00
26531;BME280;14201;43.188;24.160;2023-03-04T02:24:52;99737.84;;;7.19;100.00
26531;BME280;14201;43.188;24.160;2023-03-04T02:27:19;99739.44;;;7.17;100.00
26531;BME280;14201;43.188;24.160;2023-03-04T02:29:44;99733.38;;;7.01;100.00
26531;BME280;14201;43.188;24.160;2023-03-04T02:32:12;99738.41;;;6.98;100.00
26531;BME280;14201;43.188;24.160;2023-03-04T02:34:45;99742.31;;;7.06;100.00
26531;BME280;14201;43.188;24.160;2023-03-04T02:37:11;99735.19;;;7.02;100.00
26531;BME280;14201;43.188;24.160;2023-03-04T02:39:44;99733.72;;;7.07;100.00
26531;BME280;14201;43.188;24.160;2023-03-04T02:42:10;99739.94;;;7.09;100.00
26531;BME280;14201;43.188;24.160;2023-03-04T02:44:42;99733.13;;;7.12;100.00
26531;BME280;14201;43.188;24.160;2023-03-04T02:47:11;99732.50;;;7.16;100.00
26531;BME280;14201;43.188;24.160;2023-03-04T02:49:39;99738.56;;;7.16;100.00
26531;BME280;14201;43.188;24.160;2023-03-04T02:52:22;99726.03;;;7.39;100.00
26531;BME280;14201;43.188;24.160;2023-03-04T02:54:49;99725.66;;;7.33;100.00
26531;BME280;14201;43.188;24.160;2023-03-04T02:57:15;99736.84;;;7.32;100.00
26531;BME280;14201;43.188;24.160;2023-03-04T02:59:41;99729.97;;;7.32;100.00
26531;BME280;14201;43.188;24.160;2023-03-04T03:02:07;99726.28;;;7.28;100.00
26531;BME280;14201;43.188;24.160;2023-03-04T03:04:35;99721.06;;;7.27;100.00
26531;BME280;14201;43.188;24.160;2023-03-04T03:07:01;99731.47;;;7.28;100.00
26531;BME280;14201;43.188;24.160;2023-03-04T03:09:26;99724.69;;;7.30;100.00
26531;BME280;14201;43.188;24.160;2023-03-04T03:11:52;99726.03;;;7.39;98.99
26531;BME280;14201;43.188;24.160;2023-03-04T03:14:17;99732.13;;;7.24;99.28
26531;BME280;14201;43.188;24.160;2023-03-04T03:16:43;99720.09;;;7.10;100.00
26531;BME280;14201;43.188;24.160;2023-03-04T03:19:09;99732.66;;;7.19;100.00
26531;BME280;14201;43.188;24.160;2023-03-04T03:21:34;99722.59;;;7.08;100.00
26531;BME280;14201;43.188;24.160;2023-03-04T03:24:00;99732.16;;;7.09;100.00
26531;BME280;14201;43.188;24.160;2023-03-04T03:26:25;99735.53;;;7.08;100.00
26531;BME280;14201;43.188;24.160;2023-03-04T03:28:51;99733.91;;;7.10;100.00
26531;BME280;14201;43.188;24.160;2023-03-04T03:31:16;99726.25;;;7.12;100.00
26531;BME280;14201;43.188;24.160;2023-03-04T03:33:42;99730.59;;;7.13;100.00
26531;BME280;14201;43.188;24.160;2023-03-04T03:36:08;99728.19;;;7.16;100.00
26531;BME280;14201;43.188;24.160;2023-03-04T03:38:34;99726.44;;;7.00;100.00
26531;BME280;14201;43.188;24.160;2023-03-04T03:41:00;99725.81;;;7.04;100.00
26531;BME280;14201;43.188;24.160;2023-03-04T03:43:25;99722.94;;;7.00;100.00
26531;BME280;14201;43.188;24.160;2023-03-04T03:45:51;99723.56;;;6.96;100.00
26531;BME280;14201;43.188;24.160;2023-03-04T03:48:17;99737.88;;;7.04;100.00
26531;BME280;14201;43.188;24.160;2023-03-04T03:50:43;99741.44;;;7.06;100.00
26531;BME280;14201;43.188;24.160;2023-03-04T03:53:10;99733.72;;;7.07;100.00
26531;BME280;14201;43.188;24.160;2023-03-04T03:55:36;99736.41;;;7.09;100.00
26531;BME280;14201;43.188;24.160;2023-03-04T03:58:02;99738.13;;;7.08;100.00
26531;BME280;14201;43.188;24.160;2023-03-04T04:00:27;99736.31;;;7.07;100.00
26531;BME280;14201;43.188;24.160;2023-03-04T04:02:53;99733.03;;;7.10;100.00
26531;BME280;14201;43.188;24.160;2023-03-04T04:05:19;99734.00;;;7.12;100.00
26531;BME280;14201;43.188;24.160;2023-03-04T04:07:45;99730.88;;;7.18;100.00
26531;BME280;14201;43.188;24.160;2023-03-04T04:10:10;99725.81;;;7.19;100.00
26531;BME280;14201;43.188;24.160;2023-03-04T04:12:36;99735.09;;;7.16;100.00
26531;BME280;14201;43.188;24.160;2023-03-04T04:15:02;99720.00;;;7.08;100.00
26531;BME280;14201;43.188;24.160;2023-03-04T04:17:28;99726.16;;;7.10;100.00
26531;BME280;14201;43.188;24.160;2023-03-04T04:19:53;99717.75;;;7.15;100.00
26531;BME280;14201;43.188;24.160;2023-03-04T04:22:19;99717.75;;;7.15;100.00
26531;BME280;14201;43.188;24.160;2023-03-04T04:24:46;99711.25;;;7.06;100.00
26531;BME280;14201;43.188;24.160;2023-03-04T04:27:13;99720.00;;;7.08;100.00
26531;BME280;14201;43.188;24.160;2023-03-04T04:29:39;99721.94;;;7.13;100.00
26531;BME280;14201;43.188;24.160;2023-03-04T04:32:05;99716.13;;;7.17;100.00
26531;BME280;14201;43.188;24.160;2023-03-04T04:34:30;99713.53;;;7.17;100.00
26531;BME280;14201;43.188;24.160;2023-03-04T04:36:56;99715.50;;;7.21;100.00
26531;BME280;14201;43.188;24.160;2023-03-04T04:39:21;99715.44;;;7.19;100.00
26531;BME280;14201;43.188;24.160;2023-03-04T04:41:47;99715.50;;;7.21;100.00
26531;BME280;14201;43.188;24.160;2023-03-04T04:44:13;99713.53;;;7.17;100.00
26531;BME280;14201;43.188;24.160;2023-03-04T04:46:39;99715.25;;;7.16;100.00
26531;BME280;14201;43.188;24.160;2023-03-04T04:49:06;99722.47;;;7.22;100.00
26531;BME280;14201;43.188;24.160;2023-03-04T04:51:32;99725.22;;;7.25;100.00
26531;BME280;14201;43.188;24.160;2023-03-04T04:53:59;99725.88;;;7.21;100.00
26531;BME280;14201;43.188;24.160;2023-03-04T04:56:26;99729.38;;;7.21;100.00
26531;BME280;14201;43.188;24.160;2023-03-04T04:58:55;99715.69;;;7.24;100.00
26531;BME280;14201;43.188;24.160;2023-03-04T05:01:21;99729.38;;;7.21;100.00
26531;BME280;14201;43.188;24.160;2023-03-04T05:03:46;99726.50;;;7.17;100.00
26531;BME280;14201;43.188;24.160;2023-03-04T05:06:14;99731.59;;;7.15;100.00
26531;BME280;14201;43.188;24.160;2023-03-04T05:08:40;99730.53;;;7.12;100.00
26531;BME280;14201;43.188;24.160;2023-03-04T05:11:07;99730.53;;;7.12;100.00
26531;BME280;14201;43.188;24.160;2023-03-04T05:13:33;99736.22;;;7.21;100.00
26531;BME280;14201;43.188;24.160;2023-03-04T05:16:00;99732.66;;;7.19;100.00
26531;BME280;14201;43.188;24.160;2023-03-04T05:18:26;99728.63;;;7.24;100.00
26531;BME280;14201;43.188;24.160;2023-03-04T05:20:53;99740.16;;;7.29;100.00
26531;BME280;14201;43.188;24.160;2023-03-04T05:23:19;99735.25;;;7.19;100.00
26531;BME280;14201;43.188;24.160;2023-03-04T05:25:46;99736.41;;;7.24;100.00
26531;BME280;14201;43.188;24.160;2023-03-04T05:28:12;99738.22;;;7.10;100.00
26531;BME280;14201;43.188;24.160;2023-03-04T05:30:39;99747.31;;;7.03;100.00
26531;BME280;14201;43.188;24.160;2023-03-04T05:33:05;99752.25;;;6.99;100.00
26531;BME280;14201;43.188;24.160;2023-03-04T05:35:33;99751.78;;;6.91;100.00
26531;BME280;14201;43.188;24.160;2023-03-04T05:37:58;99755.72;;;6.99;100.00
26531;BME280;14201;43.188;24.160;2023-03-04T05:40:24;99756.88;;;7.04;100.00
26531;BME280;14201;43.188;24.160;2023-03-04T05:42:50;99752.25;;;7.14;100.00
26531;BME280;14201;43.188;24.160;2023-03-04T05:45:16;99752.25;;;7.14;100.00
26531;BME280;14201;43.188;24.160;2023-03-04T05:47:42;99752.16;;;7.12;100.00
26531;BME280;14201;43.188;24.160;2023-03-04T05:50:08;99753.22;;;7.16;100.00
26531;BME280;14201;43.188;24.160;2023-03-04T05:52:34;99762.13;;;7.21;100.00
26531;BME280;14201;43.188;24.160;2023-03-04T05:55:00;99759.91;;;7.12;100.00
26531;BME280;14201;43.188;24.160;2023-03-04T05:57:25;99757.03;;;7.07;100.00
26531;BME280;14201;43.188;24.160;2023-03-04T05:59:51;99744.66;;;7.02;100.00
26531;BME280;14201;43.188;24.160;2023-03-04T06:02:16;99763.03;;;7.21;100.00
26531;BME280;14201;43.188;24.160;2023-03-04T06:04:42;99763.47;;;7.29;100.00
26531;BME280;14201;43.188;24.160;2023-03-04T06:07:08;99746.22;;;7.44;100.00
26531;BME280;14201;43.188;24.160;2023-03-04T06:09:33;99761.47;;;7.55;100.00
26531;BME280;14201;43.188;24.160;2023-03-04T06:11:59;99769.34;;;7.56;100.00
26531;BME280;14201;43.188;24.160;2023-03-04T06:14:25;99771.53;;;7.65;100.00
26531;BME280;14201;43.188;24.160;2023-03-04T06:16:50;99769.91;;;7.67;100.00
26531;BME280;14201;43.188;24.160;2023-03-04T06:19:16;99768.78;;;7.62;100.00
26531;BME280;14201;43.188;24.160;2023-03-04T06:21:41;99761.19;;;7.50;100.00
26531;BME280;14201;43.188;24.160;2023-03-04T06:24:07;99771.56;;;7.50;100.00
26531;BME280;14201;43.188;24.160;2023-03-04T06:26:33;99772.69;;;7.70;100.00
26531;BME280;14201;43.188;24.160;2023-03-04T06:28:59;99773.69;;;7.88;100.00
26531;BME280;14201;43.188;24.160;2023-03-04T06:31:24;99767.34;;;8.15;100.00
26531;BME280;14201;43.188;24.160;2023-03-04T06:33:50;99768.56;;;8.38;100.00
26531;BME280;14201;43.188;24.160;2023-03-04T06:36:15;99771.66;;;8.63;100.00
26531;BME280;14201;43.188;24.160;2023-03-04T06:38:42;99773.38;;;8.97;99.42
26531;BME280;14201;43.188;24.160;2023-03-04T06:41:09;99775.22;;;9.16;99.99
26531;BME280;14201;43.188;24.160;2023-03-04T06:43:36;99773.97;;;9.44;99.59
26531;BME280;14201;43.188;24.160;2023-03-04T06:46:01;99775.63;;;9.60;95.81
26531;BME280;14201;43.188;24.160;2023-03-04T06:48:27;99782.38;;;9.74;92.48
26531;BME280;14201;43.188;24.160;2023-03-04T06:50:53;99781.78;;;9.80;91.98
26531;BME280;14201;43.188;24.160;2023-03-04T06:53:19;99780.06;;;9.80;89.96
26531;BME280;14201;43.188;24.160;2023-03-04T06:55:46;99787.19;;;9.66;89.35
26531;BME280;14201;43.188;24.160;2023-03-04T06:58:11;99783.25;;;9.57;91.61
26531;BME280;14201;43.188;24.160;2023-03-04T07:00:37;99779.03;;;9.41;93.18
26531;BME280;14201;43.188;24.160;2023-03-04T07:03:02;99777.41;;;9.61;91.13
26531;BME280;14201;43.188;24.160;2023-03-04T07:05:28;99783.56;;;9.63;92.79
26531;BME280;14201;43.188;24.160;2023-03-04T07:07:54;99775.41;;;9.73;93.07
26531;BME280;14201;43.188;24.160;2023-03-04T07:10:19;99785.84;;;9.93;90.91
26531;BME280;14201;43.188;24.160;2023-03-04T07:12:46;99778.88;;;10.11;91.00
26531;BME280;14201;43.188;24.160;2023-03-04T07:15:12;99781.16;;;10.23;89.35
26531;BME280;14201;43.188;24.160;2023-03-04T07:17:38;99765.34;;;10.18;88.44
26531;BME280;14201;43.188;24.160;2023-03-04T07:20:04;99778.56;;;10.60;89.79
26531;BME280;14201;43.188;24.160;2023-03-04T07:22:29;99770.94;;;11.06;86.57
26531;BME280;14201;43.188;24.160;2023-03-04T07:24:55;99773.97;;;11.16;83.30
26531;BME280;14201;43.188;24.160;2023-03-04T07:27:21;99781.50;;;11.30;82.21
26531;BME280;14201;43.188;24.160;2023-03-04T07:29:46;99781.50;;;11.30;82.56
26531;BME280;14201;43.188;24.160;2023-03-04T07:32:12;99776.16;;;11.48;80.37
26531;BME280;14201;43.188;24.160;2023-03-04T07:34:37;99779.72;;;11.50;78.54
26531;BME280;14201;43.188;24.160;2023-03-04T07:37:03;99774.34;;;11.68;81.03
26531;BME280;14201;43.188;24.160;2023-03-04T07:39:29;99769.53;;;11.56;82.05
26531;BME280;14201;43.188;24.160;2023-03-04T07:41:54;99774.66;;;11.75;82.12
26531;BME280;14201;43.188;24.160;2023-03-04T07:44:20;99775.13;;;11.88;76.97
26531;BME280;14201;43.188;24.160;2023-03-04T07:46:46;99777.28;;;11.98;75.42
26531;BME280;14201;43.188;24.160;2023-03-04T07:49:11;99776.34;;;11.96;73.15
26531;BME280;14201;43.188;24.160;2023-03-04T07:51:38;99777.66;;;12.07;71.07
26531;BME280;14201;43.188;24.160;2023-03-04T07:54:03;99774.31;;;12.34;70.57
26531;BME280;14201;43.188;24.160;2023-03-04T07:56:30;99776.31;;;12.41;71.44
26531;BME280;14201;43.188;24.160;2023-03-04T07:58:55;99780.53;;;12.61;71.93
26531;BME280;14201;43.188;24.160;2023-03-04T08:01:22;99776.00;;;12.80;74.30
26531;BME280;14201;43.188;24.160;2023-03-04T08:03:48;99783.38;;;12.92;72.66
26531;BME280;14201;43.188;24.160;2023-03-04T08:06:15;99777.19;;;12.90;72.00
26531;BME280;14201;43.188;24.160;2023-03-04T08:08:41;99772.78;;;12.87;72.89
26531;BME280;14201;43.188;24.160;2023-03-04T08:11:15;99777.41;;;12.96;73.39
26531;BME280;14201;43.188;24.160;2023-03-04T08:13:41;99773.72;;;13.15;72.49
26531;BME280;14201;43.188;24.160;2023-03-04T08:16:07;99768.63;;;13.19;69.89
26531;BME280;14201;43.188;24.160;2023-03-04T08:18:32;99776.84;;;13.05;67.97
26531;BME280;14201;43.188;24.160;2023-03-04T08:20:58;99771.38;;;12.49;66.60
26531;BME280;14201;43.188;24.160;2023-03-04T08:23:24;99767.50;;;12.37;66.73
26531;BME280;14201;43.188;24.160;2023-03-04T08:25:49;99771.75;;;12.59;67.60
26531;BME280;14201;43.188;24.160;2023-03-04T08:28:15;99763.13;;;12.38;66.87
26531;BME280;14201;43.188;24.160;2023-03-04T08:30:41;99762.91;;;12.32;67.70
26531;BME280;14201;43.188;24.160;2023-03-04T08:33:07;99763.59;;;12.50;69.76
26531;BME280;14201;43.188;24.160;2023-03-04T08:35:35;99762.69;;;12.50;66.78
26531;BME280;14201;43.188;24.160;2023-03-04T08:38:00;99755.34;;;12.64;65.98
26531;BME280;14201;43.188;24.160;2023-03-04T08:40:26;99753.22;;;12.77;68.74
26531;BME280;14201;43.188;24.160;2023-03-04T08:42:52;99748.38;;;12.88;70.64
26531;BME280;14201;43.188;24.160;2023-03-04T08:45:17;99742.16;;;13.10;70.24
26531;BME280;14201;43.188;24.160;2023-03-04T08:47:42;99742.88;;;13.30;66.31
26531;BME280;14201;43.188;24.160;2023-03-04T08:50:08;99739.22;;;13.52;66.65
26531;BME280;14201;43.188;24.160;2023-03-04T08:52:34;99741.13;;;13.31;64.72
26531;BME280;14201;43.188;24.160;2023-03-04T08:54:59;99728.94;;;13.31;63.69
26531;BME280;14201;43.188;24.160;2023-03-04T08:57:25;99729.53;;;13.50;67.65
26531;BME280;14201;43.188;24.160;2023-03-04T08:59:50;99727.34;;;13.64;69.00
26531;BME280;14201;43.188;24.160;2023-03-04T09:02:16;99728.97;;;14.17;69.45
26531;BME280;14201;43.188;24.160;2023-03-04T09:04:41;99720.84;;;14.08;67.89
26531;BME280;14201;43.188;24.160;2023-03-04T09:07:07;99720.72;;;13.75;67.76
26531;BME280;14201;43.188;24.160;2023-03-04T09:09:33;99725.59;;;14.22;70.03
26531;BME280;14201;43.188;24.160;2023-03-04T09:11:59;99720.66;;;14.63;68.15
26531;BME280;14201;43.188;24.160;2023-03-04T09:14:24;99717.94;;;14.91;65.11
26531;BME280;14201;43.188;24.160;2023-03-04T09:16:49;99720.31;;;15.17;62.64
26531;BME280;14201;43.188;24.160;2023-03-04T09:19:15;99722.56;;;15.36;62.82
26531;BME280;14201;43.188;24.160;2023-03-04T09:21:40;99712.34;;;15.49;58.28
26531;BME280;14201;43.188;24.160;2023-03-04T09:24:06;99712.16;;;15.76;60.60
26531;BME280;14201;43.188;24.160;2023-03-04T09:26:31;99706.13;;;15.82;57.80
26531;BME280;14201;43.188;24.160;2023-03-04T09:28:58;99709.59;;;15.08;63.18
26531;BME280;14201;43.188;24.160;2023-03-04T09:31:24;99700.19;;;14.81;60.30
26531;BME280;14201;43.188;24.160;2023-03-04T09:33:50;99705.06;;;15.01;58.34
26531;BME280;14201;43.188;24.160;2023-03-04T09:36:16;99700.69;;;15.36;60.03
26531;BME280;14201;43.188;24.160;2023-03-04T09:38:42;99694.41;;;15.67;59.88
26531;BME280;14201;43.188;24.160;2023-03-04T09:41:09;99697.78;;;16.00;54.25
26531;BME280;14201;43.188;24.160;2023-03-04T09:43:35;99692.03;;;16.19;56.01
26531;BME280;14201;43.188;24.160;2023-03-04T09:46:02;99686.06;;;16.28;57.58
26531;BME280;14201;43.188;24.160;2023-03-04T09:48:29;99688.81;;;16.32;57.59
26531;BME280;14201;43.188;24.160;2023-03-04T09:56:09;99684.75;;;16.51;58.35
26531;BME280;14201;43.188;24.160;2023-03-04T09:58:41;99675.31;;;16.61;57.86
26531;BME280;14201;43.188;24.160;2023-03-04T10:03:58;99665.81;;;16.68;58.89
26531;BME280;14201;43.188;24.160;2023-03-04T10:06:26;99667.94;;;16.87;58.70
26531;BME280;14201;43.188;24.160;2023-03-04T10:09:05;99656.00;;;17.08;56.66
26531;BME280;14201;43.188;24.160;2023-03-04T10:11:37;99662.97;;;17.06;57.77
26531;BME280;14201;43.188;24.160;2023-03-04T10:16:44;99652.72;;;17.23;58.07
26531;BME280;14201;43.188;24.160;2023-03-04T10:21:50;99649.66;;;17.53;57.13
26531;BME280;14201;43.188;24.160;2023-03-04T10:24:17;99646.34;;;17.69;55.51
26531;BME280;14201;43.188;24.160;2023-03-04T10:26:44;99636.16;;;17.93;57.58
26531;BME280;14201;43.188;24.160;2023-03-04T10:29:16;99633.84;;;18.22;54.44
26531;BME280;14201;43.188;24.160;2023-03-04T10:31:42;99626.69;;;18.10;48.73
26531;BME280;14201;43.188;24.160;2023-03-04T10:34:12;99619.53;;;17.98;48.83
26531;BME280;14201;43.188;24.160;2023-03-04T10:36:41;99621.16;;;17.87;50.78
26531;BME280;14201;43.188;24.160;2023-03-04T10:39:15;99622.09;;;17.92;53.04
26531;BME280;14201;43.188;24.160;2023-03-04T10:41:43;99617.44;;;17.11;47.60
26531;BME280;14201;43.188;24.160;2023-03-04T10:46:39;99609.50;;;17.08;52.69
26531;BME280;14201;43.188;24.160;2023-03-04T10:49:04;99604.63;;;17.35;53.88
26531;BME280;14201;43.188;24.160;2023-03-04T10:51:30;99597.66;;;17.38;55.28
26531;BME280;14201;43.188;24.160;2023-03-04T10:53:57;99591.75;;;17.58;53.43
26531;BME280;14201;43.188;24.160;2023-03-04T10:56:36;99588.53;;;17.80;54.12
26531;BME280;14201;43.188;24.160;2023-03-04T11:01:46;99573.97;;;18.07;49.12
26531;BME280;14201;43.188;24.160;2023-03-04T11:04:16;99570.28;;;17.94;46.42
26531;BME280;14201;43.188;24.160;2023-03-04T11:06:42;99573.63;;;17.81;49.32
26531;BME280;14201;43.188;24.160;2023-03-04T11:09:16;99566.63;;;17.83;47.70
26531;BME280;14201;43.188;24.160;2023-03-04T11:11:45;99561.31;;;17.80;48.66
26531;BME280;14201;43.188;24.160;2023-03-04T11:14:17;99551.44;;;17.60;48.95
26531;BME280;14201;43.188;24.160;2023-03-04T11:16:56;99546.88;;;17.47;49.02
26531;BME280;14201;43.188;24.160;2023-03-04T11:19:23;99542.22;;;17.27;48.89
26531;BME280;14201;43.188;24.160;2023-03-04T11:21:49;99536.09;;;17.28;47.72
26531;BME280;14201;43.188;24.160;2023-03-04T11:24:20;99542.88;;;17.11;48.98
26531;BME280;14201;43.188;24.160;2023-03-04T11:26:51;99539.13;;;16.95;52.41
26531;BME280;14201;43.188;24.160;2023-03-04T11:32:02;99532.31;;;16.54;51.98
26531;BME280;14201;43.188;24.160;2023-03-04T11:34:36;99534.03;;;16.52;51.56
26531;BME280;14201;43.188;24.160;2023-03-04T11:37:08;99529.16;;;16.24;53.35
26531;BME280;14201;43.188;24.160;2023-03-04T11:39:37;99524.25;;;16.44;53.63
26531;BME280;14201;43.188;24.160;2023-03-04T11:42:12;99519.94;;;16.47;52.60
26531;BME280;14201;43.188;24.160;2023-03-04T11:44:41;99510.47;;;16.59;53.42
26531;BME280;14201;43.188;24.160;2023-03-04T11:47:13;99508.00;;;16.68;53.66
26531;BME280;14201;43.188;24.160;2023-03-04T11:57:31;99505.00;;;16.45;50.97
26531;BME280;14201;43.188;24.160;2023-03-04T12:00:44;99496.66;;;16.19;50.79
26531;BME280;14201;43.188;24.160;2023-03-04T12:15:45;99475.22;;;15.48;50.68
26531;BME280;14201;43.188;24.160;2023-03-04T12:18:32;99477.91;;;15.09;50.81
26531;BME280;14201;43.188;24.160;2023-03-04T12:21:06;99473.03;;;14.86;53.64
26531;BME280;14201;43.188;24.160;2023-03-04T12:41:33;99435.53;;;15.77;54.29
26531;BME280;14201;43.188;24.160;2023-03-04T12:44:12;99427.94;;;15.94;55.10
26531;BME280;14201;43.188;24.160;2023-03-04T12:46:43;99424.88;;;16.20;55.57
26531;BME280;14201;43.188;24.160;2023-03-04T12:56:42;99416.59;;;15.97;52.86
26531;BME280;14201;43.188;24.160;2023-03-04T12:59:16;99422.75;;;15.99;53.77
26531;BME280;14201;43.188;24.160;2023-03-04T13:01:54;99408.00;;;16.07;52.31
26531;BME280;14201;43.188;24.160;2023-03-04T13:04:23;99400.13;;;16.05;52.66
26531;BME280;14201;43.188;24.160;2023-03-04T13:09:32;99399.53;;;16.23;53.36
26531;BME280;14201;43.188;24.160;2023-03-04T13:12:14;99394.50;;;16.39;55.33
26531;BME280;14201;43.188;24.160;2023-03-04T13:14:46;99389.44;;;16.52;51.69
26531;BME280;14201;43.188;24.160;2023-03-04T13:17:37;99399.00;;;16.47;51.07
26531;BME280;14201;43.188;24.160;2023-03-04T13:25:29;99382.47;;;15.98;55.39
26531;BME280;14201;43.188;24.160;2023-03-04T13:43:25;99360.13;;;15.23;53.06
26531;BME280;14201;43.188;24.160;2023-03-04T13:45:51;99372.13;;;15.11;54.54
26531;BME280;14201;43.188;24.160;2023-03-04T13:48:32;99360.19;;;15.27;55.34
26531;BME280;14201;43.188;24.160;2023-03-04T13:51:00;99358.56;;;15.32;53.60
26531;BME280;14201;43.188;24.160;2023-03-04T13:53:36;99354.47;;;15.48;54.89
26531;BME280;14201;43.188;24.160;2023-03-04T13:58:47;99356.63;;;15.71;54.43
26531;BME280;14201;43.188;24.160;2023-03-04T14:01:21;99348.03;;;15.80;54.18
26531;BME280;14201;43.188;24.160;2023-03-04T14:03:47;99351.66;;;15.86;52.61
26531;BME280;14201;43.188;24.160;2023-03-04T14:08:42;99347.47;;;16.01;53.44
26531;BME280;14201;43.188;24.160;2023-03-04T14:11:11;99344.94;;;16.07;53.08
26531;BME280;14201;43.188;24.160;2023-03-04T14:13:38;99338.88;;;16.09;52.63
26531;BME280;14201;43.188;24.160;2023-03-04T14:16:03;99340.63;;;16.10;52.82
26531;BME280;14201;43.188;24.160;2023-03-04T14:18:29;99342.34;;;16.08;52.42
26531;BME280;14201;43.188;24.160;2023-03-04T14:20:54;99340.56;;;16.06;51.47
26531;BME280;14201;43.188;24.160;2023-03-04T14:25:48;99338.56;;;15.88;52.46
26531;BME280;14201;43.188;24.160;2023-03-04T14:28:15;99331.31;;;15.74;51.66
26531;BME280;14201;43.188;24.160;2023-03-04T14:30:41;99331.13;;;15.65;52.52
26531;BME280;14201;43.188;24.160;2023-03-04T14:33:08;99331.09;;;15.64;52.36
26531;BME280;14201;43.188;24.160;2023-03-04T14:35:34;99322.16;;;15.52;53.84